sensor_id;sensor_type;location;lat;lon;timestamp;P1;durP1;ratioP1;P2;durP2;ratioP2
151;SDS011;68;48.792;9.164;2023-07-31T00:00:14;22.90;;;10.63;;
151;SDS011;68;48.792;9.164;2023-07-31T00:02:41;21.67;;;9.02;;
151;SDS011;68;48.792;9.164;2023-07-31T00:05:08;27.07;;;11.13;;
151;SDS011;68;48.792;9.164;2023-07-31T00:07:35;24.85;;;8.48;;
151;SDS011;68;48.792;9.164;2023-07-31T00:10:02;26.23;;;10.38;;
151;SDS011;68;48.792;9.164;2023-07-31T00:12:30;22.65;;;10.50;;
151;SDS011;68;48.792;9.164;2023-07-31T00:14:57;27.05;;;10.10;;
151;SDS011;68;48.792;9.164;2023-07-31T00:17:24;20.27;;;9.35;;
151;SDS011;68;48.792;9.164;2023-07-31T00:19:51;23.27;;;11.30;;
151;SDS011;68;48.792;9.164;2023-07-31T00:22:18;23.60;;;10.32;;
151;SDS011;68;48.792;9.164;2023-07-31T00:24:44;26.60;;;10.23;;
151;SDS011;68;48.792;9.164;2023-07-31T00:27:11;21.10;;;9.67;;
151;SDS011;68;48.792;9.164;2023-07-31T00:29:39;25.10;;;11.57;;
151;SDS011;68;48.792;9.164;2023-07-31T00:32:06;29.25;;;11.43;;
151;SDS011;68;48.792;9.164;2023-07-31T00:34:33;27.17;;;10.00;;
151;SDS011;68;48.792;9.164;2023-07-31T00:37:00;25.25;;;10.63;;
151;SDS011;68;48.792;9.164;2023-07-31T00:39:27;23.88;;;9.93;;
151;SDS011;68;48.792;9.164;2023-07-31T00:41:53;23.73;;;10.27;;
151;SDS011;68;48.792;9.164;2023-07-31T00:44:20;25.80;;;11.30;;
151;SDS011;68;48.792;9.164;2023-07-31T00:46:48;24.33;;;11.70;;
151;SDS011;68;48.792;9.164;2023-07-31T00:49:15;25.50;;;11.63;;
151;SDS011;68;48.792;9.164;2023-07-31T00:51:42;22.40;;;10.00;;
151;SDS011;68;48.792;9.164;2023-07-31T00:54:09;23.40;;;10.45;;
151;SDS011;68;48.792;9.164;2023-07-31T00:56:36;22.88;;;9.63;;
151;SDS011;68;48.792;9.164;2023-07-31T00:59:04;23.80;;;10.15;;
151;SDS011;68;48.792;9.164;2023-07-31T01:01:31;25.17;;;10.27;;
151;SDS011;68;48.792;9.164;2023-07-31T01:03:59;29.48;;;11.25;;
151;SDS011;68;48.792;9.164;2023-07-31T01:06:28;23.45;;;10.57;;
151;SDS011;68;48.792;9.164;2023-07-31T01:09:03;23.17;;;9.20;;
151;SDS011;68;48.792;9.164;2023-07-31T01:11:33;26.55;;;10.95;;
151;SDS011;68;48.792;9.164;2023-07-31T01:14:04;30.67;;;11.43;;
151;SDS011;68;48.792;9.164;2023-07-31T01:16:31;23.55;;;9.75;;
151;SDS011;68;48.792;9.164;2023-07-31T01:18:59;31.10;;;11.60;;
151;SDS011;68;48.792;9.164;2023-07-31T01:21:30;22.85;;;10.32;;
151;SDS011;68;48.792;9.164;2023-07-31T01:24:19;26.13;;;14.05;;
151;SDS011;68;48.792;9.164;2023-07-31T01:26:51;25.38;;;10.98;;
151;SDS011;68;48.792;9.164;2023-07-31T01:29:23;23.52;;;10.82;;
151;SDS011;68;48.792;9.164;2023-07-31T01:31:56;22.80;;;11.45;;
151;SDS011;68;48.792;9.164;2023-07-31T01:34:27;27.48;;;12.20;;
151;SDS011;68;48.792;9.164;2023-07-31T01:36:55;33.50;;;11.88;;
151;SDS011;68;48.792;9.164;2023-07-31T01:39:22;23.25;;;11.45;;
151;SDS011;68;48.792;9.164;2023-07-31T01:41:50;25.75;;;11.68;;
151;SDS011;68;48.792;9.164;2023-07-31T01:44:17;26.33;;;11.40;;
151;SDS011;68;48.792;9.164;2023-07-31T01:46:44;25.77;;;11.02;;
151;SDS011;68;48.792;9.164;2023-07-31T01:49:10;24.25;;;11.15;;
151;SDS011;68;48.792;9.164;2023-07-31T01:51:37;31.98;;;9.93;;
151;SDS011;68;48.792;9.164;2023-07-31T01:54:04;21.25;;;8.93;;
151;SDS011;68;48.792;9.164;2023-07-31T01:56:31;23.85;;;11.45;;
151;SDS011;68;48.792;9.164;2023-07-31T01:58:59;26.00;;;13.93;;
151;SDS011;68;48.792;9.164;2023-07-31T02:01:25;25.08;;;11.27;;
151;SDS011;68;48.792;9.164;2023-07-31T02:03:52;21.83;;;9.52;;
151;SDS011;68;48.792;9.164;2023-07-31T02:06:19;23.92;;;9.65;;
151;SDS011;68;48.792;9.164;2023-07-31T02:08:47;27.35;;;12.48;;
151;SDS011;68;48.792;9.164;2023-07-31T02:11:14;24.15;;;9.38;;
151;SDS011;68;48.792;9.164;2023-07-31T02:13:41;34.20;;;12.02;;
151;SDS011;68;48.792;9.164;2023-07-31T02:16:09;27.20;;;10.50;;
151;SDS011;68;48.792;9.164;2023-07-31T02:18:36;23.05;;;10.00;;
151;SDS011;68;48.792;9.164;2023-07-31T02:21:02;24.50;;;9.35;;
151;SDS011;68;48.792;9.164;2023-07-31T02:23:29;23.55;;;10.25;;
151;SDS011;68;48.792;9.164;2023-07-31T02:25:56;22.67;;;9.88;;
151;SDS011;68;48.792;9.164;2023-07-31T02:28:23;27.70;;;12.52;;
151;SDS011;68;48.792;9.164;2023-07-31T02:30:49;22.90;;;10.63;;
151;SDS011;68;48.792;9.164;2023-07-31T02:33:18;24.55;;;10.48;;
151;SDS011;68;48.792;9.164;2023-07-31T02:35:45;23.15;;;10.10;;
151;SDS011;68;48.792;9.164;2023-07-31T02:38:12;22.45;;;9.23;;
151;SDS011;68;48.792;9.164;2023-07-31T02:40:39;26.23;;;10.20;;
151;SDS011;68;48.792;9.164;2023-07-31T02:43:06;23.65;;;9.02;;
151;SDS011;68;48.792;9.164;2023-07-31T02:45:33;23.13;;;9.63;;
151;SDS011;68;48.792;9.164;2023-07-31T02:47:59;21.85;;;7.82;;
151;SDS011;68;48.792;9.164;2023-07-31T02:50:27;23.17;;;8.40;;
151;SDS011;68;48.792;9.164;2023-07-31T02:52:54;22.88;;;7.45;;
151;SDS011;68;48.792;9.164;2023-07-31T02:55:21;20.33;;;8.80;;
151;SDS011;68;48.792;9.164;2023-07-31T02:57:48;24.33;;;8.48;;
151;SDS011;68;48.792;9.164;2023-07-31T03:00:14;20.23;;;8.60;;
151;SDS011;68;48.792;9.164;2023-07-31T03:02:41;24.05;;;9.32;;
151;SDS011;68;48.792;9.164;2023-07-31T03:05:08;23.55;;;8.90;;
151;SDS011;68;48.792;9.164;2023-07-31T03:07:36;20.38;;;8.00;;
151;SDS011;68;48.792;9.164;2023-07-31T03:10:03;20.90;;;8.13;;
151;SDS011;68;48.792;9.164;2023-07-31T03:12:30;22.90;;;8.23;;
151;SDS011;68;48.792;9.164;2023-07-31T03:14:57;19.48;;;8.68;;
151;SDS011;68;48.792;9.164;2023-07-31T03:17:24;20.20;;;9.40;;
151;SDS011;68;48.792;9.164;2023-07-31T03:19:50;21.23;;;9.00;;
151;SDS011;68;48.792;9.164;2023-07-31T03:22:17;22.00;;;9.48;;
151;SDS011;68;48.792;9.164;2023-07-31T03:24:45;25.38;;;11.27;;
151;SDS011;68;48.792;9.164;2023-07-31T03:27:12;19.95;;;7.85;;
151;SDS011;68;48.792;9.164;2023-07-31T03:29:39;22.88;;;8.48;;
151;SDS011;68;48.792;9.164;2023-07-31T03:32:06;23.20;;;10.18;;
151;SDS011;68;48.792;9.164;2023-07-31T03:34:33;22.02;;;8.30;;
151;SDS011;68;48.792;9.164;2023-07-31T03:36:59;20.58;;;8.68;;
151;SDS011;68;48.792;9.164;2023-07-31T03:39:26;23.35;;;8.80;;
151;SDS011;68;48.792;9.164;2023-07-31T03:41:54;20.25;;;9.02;;
151;SDS011;68;48.792;9.164;2023-07-31T03:44:21;23.33;;;8.95;;
151;SDS011;68;48.792;9.164;2023-07-31T03:46:48;21.35;;;8.60;;
151;SDS011;68;48.792;9.164;2023-07-31T03:49:14;22.38;;;8.40;;
151;SDS011;68;48.792;9.164;2023-07-31T03:51:41;22.73;;;8.30;;
151;SDS011;68;48.792;9.164;2023-07-31T03:54:08;21.70;;;7.82;;
151;SDS011;68;48.792;9.164;2023-07-31T03:56:35;19.75;;;7.68;;
151;SDS011;68;48.792;9.164;2023-07-31T03:59:04;20.25;;;8.65;;
151;SDS011;68;48.792;9.164;2023-07-31T04:01:31;22.98;;;7.50;;
151;SDS011;68;48.792;9.164;2023-07-31T04:03:58;23.08;;;8.55;;
151;SDS011;68;48.792;9.164;2023-07-31T04:06:25;25.10;;;9.07;;
151;SDS011;68;48.792;9.164;2023-07-31T04:08:51;24.30;;;7.55;;
151;SDS011;68;48.792;9.164;2023-07-31T04:11:18;24.45;;;8.07;;
151;SDS011;68;48.792;9.164;2023-07-31T04:13:45;21.45;;;7.05;;
151;SDS011;68;48.792;9.164;2023-07-31T04:16:13;19.83;;;7.70;;
151;SDS011;68;48.792;9.164;2023-07-31T04:18:40;22.88;;;8.43;;
151;SDS011;68;48.792;9.164;2023-07-31T04:21:07;20.00;;;7.32;;
151;SDS011;68;48.792;9.164;2023-07-31T04:23:35;19.13;;;6.85;;
151;SDS011;68;48.792;9.164;2023-07-31T04:26:01;21.13;;;7.35;;
151;SDS011;68;48.792;9.164;2023-07-31T04:28:28;22.40;;;7.15;;
151;SDS011;68;48.792;9.164;2023-07-31T04:30:56;22.15;;;7.97;;
151;SDS011;68;48.792;9.164;2023-07-31T04:33:25;20.83;;;6.68;;
151;SDS011;68;48.792;9.164;2023-07-31T04:35:52;23.13;;;7.40;;
151;SDS011;68;48.792;9.164;2023-07-31T04:38:19;19.67;;;6.78;;
151;SDS011;68;48.792;9.164;2023-07-31T04:40:46;19.75;;;7.30;;
151;SDS011;68;48.792;9.164;2023-07-31T04:43:13;19.88;;;7.70;;
151;SDS011;68;48.792;9.164;2023-07-31T04:45:42;22.25;;;7.57;;
151;SDS011;68;48.792;9.164;2023-07-31T04:48:11;21.90;;;7.55;;
151;SDS011;68;48.792;9.164;2023-07-31T04:50:39;20.77;;;6.97;;
151;SDS011;68;48.792;9.164;2023-07-31T04:53:05;22.40;;;8.18;;
151;SDS011;68;48.792;9.164;2023-07-31T04:55:32;21.20;;;7.25;;
151;SDS011;68;48.792;9.164;2023-07-31T04:57:59;22.88;;;7.50;;
151;SDS011;68;48.792;9.164;2023-07-31T05:00:26;20.80;;;8.40;;
151;SDS011;68;48.792;9.164;2023-07-31T05:02:52;18.55;;;6.57;;
151;SDS011;68;48.792;9.164;2023-07-31T05:05:19;20.02;;;7.55;;
151;SDS011;68;48.792;9.164;2023-07-31T05:07:47;23.08;;;7.28;;
151;SDS011;68;48.792;9.164;2023-07-31T05:10:14;21.45;;;7.40;;
151;SDS011;68;48.792;9.164;2023-07-31T05:12:41;20.98;;;7.13;;
151;SDS011;68;48.792;9.164;2023-07-31T05:15:08;20.85;;;7.75;;
151;SDS011;68;48.792;9.164;2023-07-31T05:17:35;21.50;;;8.20;;
151;SDS011;68;48.792;9.164;2023-07-31T05:20:02;21.55;;;7.38;;
151;SDS011;68;48.792;9.164;2023-07-31T05:22:29;23.67;;;7.00;;
151;SDS011;68;48.792;9.164;2023-07-31T05:24:57;21.23;;;7.72;;
151;SDS011;68;48.792;9.164;2023-07-31T05:27:24;20.08;;;6.15;;
151;SDS011;68;48.792;9.164;2023-07-31T05:29:51;18.40;;;6.95;;
151;SDS011;68;48.792;9.164;2023-07-31T05:32:18;24.15;;;6.72;;
151;SDS011;68;48.792;9.164;2023-07-31T05:34:45;20.77;;;6.85;;
151;SDS011;68;48.792;9.164;2023-07-31T05:37:11;20.70;;;6.47;;
151;SDS011;68;48.792;9.164;2023-07-31T05:39:38;21.60;;;6.17;;
151;SDS011;68;48.792;9.164;2023-07-31T05:42:06;19.80;;;6.75;;
151;SDS011;68;48.792;9.164;2023-07-31T05:44:33;21.75;;;7.55;;
151;SDS011;68;48.792;9.164;2023-07-31T05:47:00;21.10;;;7.60;;
151;SDS011;68;48.792;9.164;2023-07-31T05:49:28;22.25;;;6.82;;
151;SDS011;68;48.792;9.164;2023-07-31T05:51:55;21.30;;;6.22;;
151;SDS011;68;48.792;9.164;2023-07-31T05:54:22;24.50;;;6.13;;
151;SDS011;68;48.792;9.164;2023-07-31T05:56:48;19.60;;;6.00;;
151;SDS011;68;48.792;9.164;2023-07-31T05:59:17;19.88;;;6.25;;
151;SDS011;68;48.792;9.164;2023-07-31T06:01:43;22.17;;;7.28;;
151;SDS011;68;48.792;9.164;2023-07-31T06:04:10;21.50;;;6.30;;
151;SDS011;68;48.792;9.164;2023-07-31T06:06:37;21.37;;;7.10;;
151;SDS011;68;48.792;9.164;2023-07-31T06:09:04;20.88;;;6.38;;
151;SDS011;68;48.792;9.164;2023-07-31T06:11:30;21.93;;;6.07;;
151;SDS011;68;48.792;9.164;2023-07-31T06:13:57;23.27;;;7.00;;
151;SDS011;68;48.792;9.164;2023-07-31T06:16:25;21.70;;;6.30;;
151;SDS011;68;48.792;9.164;2023-07-31T06:18:52;19.70;;;5.60;;
151;SDS011;68;48.792;9.164;2023-07-31T06:21:19;21.23;;;6.30;;
151;SDS011;68;48.792;9.164;2023-07-31T06:23:46;20.20;;;5.90;;
151;SDS011;68;48.792;9.164;2023-07-31T06:26:12;18.90;;;5.80;;
151;SDS011;68;48.792;9.164;2023-07-31T06:28:39;19.10;;;5.30;;
151;SDS011;68;48.792;9.164;2023-07-31T06:31:06;20.07;;;5.97;;
151;SDS011;68;48.792;9.164;2023-07-31T06:33:34;21.47;;;5.33;;
151;SDS011;68;48.792;9.164;2023-07-31T06:36:01;20.57;;;5.57;;
151;SDS011;68;48.792;9.164;2023-07-31T06:38:27;21.10;;;5.80;;
151;SDS011;68;48.792;9.164;2023-07-31T06:40:54;22.30;;;5.90;;
151;SDS011;68;48.792;9.164;2023-07-31T06:43:21;22.20;;;6.50;;
151;SDS011;68;48.792;9.164;2023-07-31T06:45:48;18.83;;;5.47;;
151;SDS011;68;48.792;9.164;2023-07-31T06:48:16;20.03;;;5.87;;
151;SDS011;68;48.792;9.164;2023-07-31T06:50:44;21.57;;;5.80;;
151;SDS011;68;48.792;9.164;2023-07-31T06:53:11;21.67;;;5.53;;
151;SDS011;68;48.792;9.164;2023-07-31T06:55:38;21.47;;;5.40;;
151;SDS011;68;48.792;9.164;2023-07-31T06:58:04;23.33;;;6.27;;
151;SDS011;68;48.792;9.164;2023-07-31T07:00:31;23.90;;;5.77;;
151;SDS011;68;48.792;9.164;2023-07-31T07:02:58;23.00;;;6.30;;
151;SDS011;68;48.792;9.164;2023-07-31T07:05:25;25.23;;;5.80;;
151;SDS011;68;48.792;9.164;2023-07-31T07:07:53;20.07;;;5.50;;
151;SDS011;68;48.792;9.164;2023-07-31T07:10:20;22.77;;;5.80;;
151;SDS011;68;48.792;9.164;2023-07-31T07:12:47;25.80;;;5.40;;
151;SDS011;68;48.792;9.164;2023-07-31T07:15:14;22.30;;;5.40;;
151;SDS011;68;48.792;9.164;2023-07-31T07:17:41;25.20;;;5.90;;
151;SDS011;68;48.792;9.164;2023-07-31T07:20:08;22.17;;;5.43;;
151;SDS011;68;48.792;9.164;2023-07-31T07:22:35;24.17;;;5.40;;
151;SDS011;68;48.792;9.164;2023-07-31T07:25:04;23.20;;;5.60;;
151;SDS011;68;48.792;9.164;2023-07-31T07:27:32;22.50;;;5.20;;
151;SDS011;68;48.792;9.164;2023-07-31T07:29:59;23.73;;;5.40;;
151;SDS011;68;48.792;9.164;2023-07-31T07:32:26;23.27;;;5.70;;
151;SDS011;68;48.792;9.164;2023-07-31T07:34:52;23.00;;;5.47;;
151;SDS011;68;48.792;9.164;2023-07-31T07:37:19;21.33;;;5.10;;
151;SDS011;68;48.792;9.164;2023-07-31T07:39:46;18.70;;;5.00;;
151;SDS011;68;48.792;9.164;2023-07-31T07:42:14;21.20;;;5.40;;
151;SDS011;68;48.792;9.164;2023-07-31T07:44:41;19.47;;;4.97;;
151;SDS011;68;48.792;9.164;2023-07-31T07:47:08;19.30;;;5.10;;
151;SDS011;68;48.792;9.164;2023-07-31T07:49:34;22.13;;;4.77;;
151;SDS011;68;48.792;9.164;2023-07-31T07:52:01;19.83;;;5.53;;
151;SDS011;68;48.792;9.164;2023-07-31T07:54:29;21.80;;;5.17;;
151;SDS011;68;48.792;9.164;2023-07-31T07:56:56;21.50;;;5.30;;
151;SDS011;68;48.792;9.164;2023-07-31T07:59:24;22.40;;;5.10;;
151;SDS011;68;48.792;9.164;2023-07-31T08:01:51;20.80;;;5.10;;
151;SDS011;68;48.792;9.164;2023-07-31T08:04:18;21.67;;;5.17;;
151;SDS011;68;48.792;9.164;2023-07-31T08:06:45;22.47;;;5.57;;
151;SDS011;68;48.792;9.164;2023-07-31T08:09:11;19.63;;;5.20;;
151;SDS011;68;48.792;9.164;2023-07-31T08:11:38;20.17;;;4.73;;
151;SDS011;68;48.792;9.164;2023-07-31T08:14:05;21.27;;;4.80;;
151;SDS011;68;48.792;9.164;2023-07-31T08:16:33;21.70;;;4.70;;
151;SDS011;68;48.792;9.164;2023-07-31T08:19:00;24.10;;;5.17;;
151;SDS011;68;48.792;9.164;2023-07-31T08:21:27;21.53;;;5.20;;
151;SDS011;68;48.792;9.164;2023-07-31T08:23:53;19.33;;;4.50;;
151;SDS011;68;48.792;9.164;2023-07-31T08:26:20;22.80;;;4.67;;
151;SDS011;68;48.792;9.164;2023-07-31T08:28:47;20.00;;;4.80;;
151;SDS011;68;48.792;9.164;2023-07-31T08:31:14;21.50;;;4.20;;
151;SDS011;68;48.792;9.164;2023-07-31T08:33:42;21.80;;;4.53;;
151;SDS011;68;48.792;9.164;2023-07-31T08:36:09;22.07;;;5.03;;
151;SDS011;68;48.792;9.164;2023-07-31T08:38:35;24.37;;;4.80;;
151;SDS011;68;48.792;9.164;2023-07-31T08:41:03;20.80;;;4.60;;
151;SDS011;68;48.792;9.164;2023-07-31T08:43:30;20.67;;;4.90;;
151;SDS011;68;48.792;9.164;2023-07-31T08:45:58;21.00;;;4.33;;
151;SDS011;68;48.792;9.164;2023-07-31T08:48:25;23.10;;;4.17;;
151;SDS011;68;48.792;9.164;2023-07-31T08:50:55;23.63;;;4.40;;
151;SDS011;68;48.792;9.164;2023-07-31T08:53:22;18.57;;;4.23;;
151;SDS011;68;48.792;9.164;2023-07-31T08:55:49;25.73;;;5.20;;
151;SDS011;68;48.792;9.164;2023-07-31T08:58:18;22.13;;;4.53;;
151;SDS011;68;48.792;9.164;2023-07-31T09:00:46;21.77;;;4.53;;
151;SDS011;68;48.792;9.164;2023-07-31T09:03:13;20.93;;;4.77;;
151;SDS011;68;48.792;9.164;2023-07-31T09:05:42;21.53;;;4.70;;
151;SDS011;68;48.792;9.164;2023-07-31T09:08:11;22.83;;;4.33;;
151;SDS011;68;48.792;9.164;2023-07-31T09:10:40;21.07;;;4.50;;
151;SDS011;68;48.792;9.164;2023-07-31T09:13:08;22.00;;;4.73;;
151;SDS011;68;48.792;9.164;2023-07-31T09:15:35;23.47;;;4.57;;
151;SDS011;68;48.792;9.164;2023-07-31T09:18:03;19.37;;;3.97;;
151;SDS011;68;48.792;9.164;2023-07-31T09:20:31;20.33;;;4.00;;
151;SDS011;68;48.792;9.164;2023-07-31T09:23:04;20.63;;;4.70;;
151;SDS011;68;48.792;9.164;2023-07-31T09:25:34;23.30;;;4.57;;
151;SDS011;68;48.792;9.164;2023-07-31T09:28:03;21.70;;;4.50;;
151;SDS011;68;48.792;9.164;2023-07-31T09:30:30;23.80;;;5.10;;
151;SDS011;68;48.792;9.164;2023-07-31T09:33:09;24.63;;;4.50;;
151;SDS011;68;48.792;9.164;2023-07-31T09:35:36;20.97;;;4.50;;
151;SDS011;68;48.792;9.164;2023-07-31T09:38:05;24.90;;;4.93;;
151;SDS011;68;48.792;9.164;2023-07-31T09:40:36;19.80;;;4.10;;
151;SDS011;68;48.792;9.164;2023-07-31T09:43:04;20.83;;;4.90;;
151;SDS011;68;48.792;9.164;2023-07-31T09:45:33;23.20;;;5.00;;
151;SDS011;68;48.792;9.164;2023-07-31T09:48:02;19.17;;;4.90;;
151;SDS011;68;48.792;9.164;2023-07-31T09:50:29;21.87;;;5.50;;
151;SDS011;68;48.792;9.164;2023-07-31T09:52:56;19.60;;;4.40;;
151;SDS011;68;48.792;9.164;2023-07-31T09:55:23;21.60;;;4.53;;
151;SDS011;68;48.792;9.164;2023-07-31T09:57:52;22.63;;;4.50;;
151;SDS011;68;48.792;9.164;2023-07-31T10:00:22;21.50;;;4.37;;
151;SDS011;68;48.792;9.164;2023-07-31T10:02:50;20.67;;;4.17;;
151;SDS011;68;48.792;9.164;2023-07-31T10:05:17;22.20;;;4.80;;
151;SDS011;68;48.792;9.164;2023-07-31T10:07:46;19.43;;;4.33;;
151;SDS011;68;48.792;9.164;2023-07-31T10:10:17;19.50;;;4.53;;
151;SDS011;68;48.792;9.164;2023-07-31T10:12:46;21.40;;;4.60;;
151;SDS011;68;48.792;9.164;2023-07-31T10:15:16;27.80;;;5.23;;
151;SDS011;68;48.792;9.164;2023-07-31T10:17:43;21.77;;;4.33;;
151;SDS011;68;48.792;9.164;2023-07-31T10:20:10;23.37;;;4.57;;
151;SDS011;68;48.792;9.164;2023-07-31T10:22:37;20.77;;;4.30;;
151;SDS011;68;48.792;9.164;2023-07-31T10:25:05;21.03;;;4.87;;
151;SDS011;68;48.792;9.164;2023-07-31T10:27:34;18.80;;;4.50;;
151;SDS011;68;48.792;9.164;2023-07-31T10:30:01;21.23;;;4.10;;
151;SDS011;68;48.792;9.164;2023-07-31T10:32:33;29.23;;;3.60;;
151;SDS011;68;48.792;9.164;2023-07-31T10:35:00;22.83;;;5.33;;
151;SDS011;68;48.792;9.164;2023-07-31T10:37:29;18.63;;;4.13;;
151;SDS011;68;48.792;9.164;2023-07-31T10:40:04;20.23;;;4.17;;
151;SDS011;68;48.792;9.164;2023-07-31T10:42:33;19.07;;;4.23;;
151;SDS011;68;48.792;9.164;2023-07-31T10:45:02;25.00;;;4.80;;
151;SDS011;68;48.792;9.164;2023-07-31T10:47:30;21.83;;;4.23;;
151;SDS011;68;48.792;9.164;2023-07-31T10:50:16;21.47;;;4.30;;
151;SDS011;68;48.792;9.164;2023-07-31T10:52:47;21.43;;;4.77;;
151;SDS011;68;48.792;9.164;2023-07-31T10:55:16;23.00;;;4.03;;
151;SDS011;68;48.792;9.164;2023-07-31T10:57:53;19.73;;;4.20;;
151;SDS011;68;48.792;9.164;2023-07-31T11:00:22;21.80;;;4.60;;
151;SDS011;68;48.792;9.164;2023-07-31T11:03:02;22.20;;;4.50;;
151;SDS011;68;48.792;9.164;2023-07-31T11:05:41;20.60;;;4.37;;
151;SDS011;68;48.792;9.164;2023-07-31T11:08:19;20.10;;;4.37;;
151;SDS011;68;48.792;9.164;2023-07-31T11:10:48;22.80;;;4.47;;
151;SDS011;68;48.792;9.164;2023-07-31T11:13:16;25.07;;;4.40;;
151;SDS011;68;48.792;9.164;2023-07-31T11:15:43;23.30;;;5.03;;
151;SDS011;68;48.792;9.164;2023-07-31T11:18:11;20.70;;;4.47;;
151;SDS011;68;48.792;9.164;2023-07-31T11:20:38;23.00;;;4.73;;
151;SDS011;68;48.792;9.164;2023-07-31T11:23:06;24.43;;;4.77;;
151;SDS011;68;48.792;9.164;2023-07-31T11:25:35;21.23;;;4.67;;
151;SDS011;68;48.792;9.164;2023-07-31T11:28:03;23.17;;;5.13;;
151;SDS011;68;48.792;9.164;2023-07-31T11:30:31;23.73;;;4.43;;
151;SDS011;68;48.792;9.164;2023-07-31T11:32:59;23.50;;;4.63;;
151;SDS011;68;48.792;9.164;2023-07-31T11:35:29;20.17;;;4.67;;
151;SDS011;68;48.792;9.164;2023-07-31T11:37:56;26.10;;;5.00;;
151;SDS011;68;48.792;9.164;2023-07-31T11:40:23;21.13;;;4.63;;
151;SDS011;68;48.792;9.164;2023-07-31T11:42:54;20.67;;;4.50;;
151;SDS011;68;48.792;9.164;2023-07-31T11:45:24;22.57;;;4.40;;
151;SDS011;68;48.792;9.164;2023-07-31T11:47:51;25.03;;;4.87;;
151;SDS011;68;48.792;9.164;2023-07-31T11:50:19;20.90;;;5.20;;
151;SDS011;68;48.792;9.164;2023-07-31T11:52:48;25.27;;;4.97;;
151;SDS011;68;48.792;9.164;2023-07-31T11:55:18;26.30;;;5.10;;
151;SDS011;68;48.792;9.164;2023-07-31T11:57:45;23.73;;;4.80;;
151;SDS011;68;48.792;9.164;2023-07-31T12:00:13;21.93;;;4.70;;
151;SDS011;68;48.792;9.164;2023-07-31T12:02:40;22.40;;;4.70;;
151;SDS011;68;48.792;9.164;2023-07-31T12:05:10;20.47;;;4.60;;
151;SDS011;68;48.792;9.164;2023-07-31T12:07:45;20.77;;;4.37;;
151;SDS011;68;48.792;9.164;2023-07-31T12:10:23;24.13;;;5.13;;
151;SDS011;68;48.792;9.164;2023-07-31T12:12:58;24.00;;;4.90;;
151;SDS011;68;48.792;9.164;2023-07-31T12:15:36;22.53;;;4.63;;
151;SDS011;68;48.792;9.164;2023-07-31T12:18:05;21.83;;;4.87;;
151;SDS011;68;48.792;9.164;2023-07-31T12:20:32;21.70;;;5.00;;
151;SDS011;68;48.792;9.164;2023-07-31T12:22:59;20.50;;;5.13;;
151;SDS011;68;48.792;9.164;2023-07-31T12:25:31;23.93;;;4.80;;
151;SDS011;68;48.792;9.164;2023-07-31T12:28:03;23.83;;;5.23;;
151;SDS011;68;48.792;9.164;2023-07-31T12:30:32;22.37;;;5.00;;
151;SDS011;68;48.792;9.164;2023-07-31T12:33:02;20.30;;;4.53;;
151;SDS011;68;48.792;9.164;2023-07-31T12:35:34;20.13;;;4.70;;
151;SDS011;68;48.792;9.164;2023-07-31T12:38:02;21.73;;;4.80;;
151;SDS011;68;48.792;9.164;2023-07-31T12:40:29;20.10;;;4.90;;
151;SDS011;68;48.792;9.164;2023-07-31T12:42:57;29.80;;;5.63;;
151;SDS011;68;48.792;9.164;2023-07-31T12:45:26;21.17;;;4.57;;
151;SDS011;68;48.792;9.164;2023-07-31T12:47:53;22.70;;;5.00;;
151;SDS011;68;48.792;9.164;2023-07-31T12:50:20;23.43;;;5.07;;
151;SDS011;68;48.792;9.164;2023-07-31T12:52:47;19.80;;;4.53;;
151;SDS011;68;48.792;9.164;2023-07-31T12:55:14;25.97;;;5.40;;
151;SDS011;68;48.792;9.164;2023-07-31T12:57:41;22.20;;;5.33;;
151;SDS011;68;48.792;9.164;2023-07-31T13:00:10;21.20;;;5.03;;
151;SDS011;68;48.792;9.164;2023-07-31T13:02:38;25.40;;;5.10;;
151;SDS011;68;48.792;9.164;2023-07-31T13:05:05;20.07;;;5.00;;
151;SDS011;68;48.792;9.164;2023-07-31T13:07:32;22.57;;;5.40;;
151;SDS011;68;48.792;9.164;2023-07-31T13:09:59;21.53;;;5.10;;
151;SDS011;68;48.792;9.164;2023-07-31T13:12:26;24.10;;;5.40;;
151;SDS011;68;48.792;9.164;2023-07-31T13:14:53;20.93;;;4.80;;
151;SDS011;68;48.792;9.164;2023-07-31T13:17:21;20.53;;;4.63;;
151;SDS011;68;48.792;9.164;2023-07-31T13:19:48;22.80;;;4.97;;
151;SDS011;68;48.792;9.164;2023-07-31T13:22:14;23.17;;;5.20;;
151;SDS011;68;48.792;9.164;2023-07-31T13:24:41;26.27;;;5.47;;
151;SDS011;68;48.792;9.164;2023-07-31T13:27:08;22.73;;;4.60;;
151;SDS011;68;48.792;9.164;2023-07-31T13:29:35;21.40;;;5.30;;
151;SDS011;68;48.792;9.164;2023-07-31T13:32:02;24.53;;;5.83;;
151;SDS011;68;48.792;9.164;2023-07-31T13:34:30;21.27;;;4.67;;
151;SDS011;68;48.792;9.164;2023-07-31T13:36:57;21.03;;;4.93;;
151;SDS011;68;48.792;9.164;2023-07-31T13:39:24;27.60;;;5.27;;
151;SDS011;68;48.792;9.164;2023-07-31T13:41:50;21.00;;;4.80;;
151;SDS011;68;48.792;9.164;2023-07-31T13:44:17;22.90;;;4.43;;
151;SDS011;68;48.792;9.164;2023-07-31T13:46:44;19.10;;;4.47;;
151;SDS011;68;48.792;9.164;2023-07-31T13:49:10;19.60;;;4.00;;
151;SDS011;68;48.792;9.164;2023-07-31T13:51:38;20.20;;;4.30;;
151;SDS011;68;48.792;9.164;2023-07-31T13:54:05;20.57;;;4.80;;
151;SDS011;68;48.792;9.164;2023-07-31T13:56:32;21.60;;;4.20;;
151;SDS011;68;48.792;9.164;2023-07-31T13:58:59;19.70;;;4.17;;
151;SDS011;68;48.792;9.164;2023-07-31T14:01:27;25.40;;;4.83;;
151;SDS011;68;48.792;9.164;2023-07-31T14:03:53;21.50;;;4.17;;
151;SDS011;68;48.792;9.164;2023-07-31T14:06:20;20.13;;;4.10;;
151;SDS011;68;48.792;9.164;2023-07-31T14:08:48;19.87;;;4.30;;
151;SDS011;68;48.792;9.164;2023-07-31T14:11:15;19.47;;;4.70;;
151;SDS011;68;48.792;9.164;2023-07-31T14:13:42;19.60;;;4.57;;
151;SDS011;68;48.792;9.164;2023-07-31T14:16:08;21.40;;;4.63;;
151;SDS011;68;48.792;9.164;2023-07-31T14:18:35;21.87;;;4.50;;
151;SDS011;68;48.792;9.164;2023-07-31T14:21:02;18.70;;;4.30;;
151;SDS011;68;48.792;9.164;2023-07-31T14:23:29;22.00;;;4.40;;
151;SDS011;68;48.792;9.164;2023-07-31T14:25:57;19.50;;;4.53;;
151;SDS011;68;48.792;9.164;2023-07-31T14:28:24;21.70;;;4.80;;
151;SDS011;68;48.792;9.164;2023-07-31T14:30:50;21.67;;;4.60;;
151;SDS011;68;48.792;9.164;2023-07-31T14:33:17;22.60;;;5.00;;
151;SDS011;68;48.792;9.164;2023-07-31T14:35:44;25.50;;;4.40;;
151;SDS011;68;48.792;9.164;2023-07-31T14:38:11;20.50;;;4.60;;
151;SDS011;68;48.792;9.164;2023-07-31T14:40:37;26.10;;;5.20;;
151;SDS011;68;48.792;9.164;2023-07-31T14:43:05;24.03;;;4.70;;
151;SDS011;68;48.792;9.164;2023-07-31T14:45:32;24.77;;;4.73;;
151;SDS011;68;48.792;9.164;2023-07-31T14:47:59;22.93;;;4.30;;
151;SDS011;68;48.792;9.164;2023-07-31T14:50:26;24.03;;;6.13;;
151;SDS011;68;48.792;9.164;2023-07-31T14:52:53;20.50;;;4.20;;
151;SDS011;68;48.792;9.164;2023-07-31T14:55:19;23.07;;;4.73;;
151;SDS011;68;48.792;9.164;2023-07-31T14:57:46;22.23;;;4.10;;
151;SDS011;68;48.792;9.164;2023-07-31T15:00:15;21.80;;;4.10;;
151;SDS011;68;48.792;9.164;2023-07-31T15:02:41;19.73;;;4.13;;
151;SDS011;68;48.792;9.164;2023-07-31T15:05:08;23.60;;;4.80;;
151;SDS011;68;48.792;9.164;2023-07-31T15:07:35;18.83;;;4.40;;
151;SDS011;68;48.792;9.164;2023-07-31T15:10:02;21.70;;;4.40;;
151;SDS011;68;48.792;9.164;2023-07-31T15:12:30;21.97;;;4.50;;
151;SDS011;68;48.792;9.164;2023-07-31T15:14:57;20.67;;;4.50;;
151;SDS011;68;48.792;9.164;2023-07-31T15:17:25;20.47;;;4.53;;
151;SDS011;68;48.792;9.164;2023-07-31T15:19:53;19.27;;;4.10;;
151;SDS011;68;48.792;9.164;2023-07-31T15:22:20;19.70;;;4.43;;
151;SDS011;68;48.792;9.164;2023-07-31T15:24:47;23.30;;;4.97;;
151;SDS011;68;48.792;9.164;2023-07-31T15:27:14;21.00;;;4.20;;
151;SDS011;68;48.792;9.164;2023-07-31T15:29:41;21.43;;;4.30;;
151;SDS011;68;48.792;9.164;2023-07-31T15:32:08;20.90;;;4.30;;
151;SDS011;68;48.792;9.164;2023-07-31T15:34:36;18.70;;;4.10;;
151;SDS011;68;48.792;9.164;2023-07-31T15:37:03;21.40;;;4.73;;
151;SDS011;68;48.792;9.164;2023-07-31T15:39:30;21.03;;;4.30;;
151;SDS011;68;48.792;9.164;2023-07-31T15:41:57;20.37;;;4.30;;
151;SDS011;68;48.792;9.164;2023-07-31T15:44:24;18.83;;;4.30;;